createdAt,value
2017-07-08T00:01:22.011Z,20.10
2017-07-08T00:03:48.428Z,20.10
2017-07-08T00:06:14.870Z,20.00
2017-07-08T00:08:42.022Z,19.80
2017-07-08T00:11:09.469Z,19.80
2017-07-08T00:13:36.611Z,19.80
2017-07-08T00:16:03.002Z,19.70
2017-07-08T00:18:29.417Z,19.70
2017-07-08T00:20:55.812Z,19.70
2017-07-08T00:23:22.240Z,19.70
2017-07-08T00:25:48.645Z,19.50
2017-07-08T00:28:15.046Z,19.30
2017-07-08T00:30:41.451Z,19.30
2017-07-08T00:33:08.630Z,19.40
2017-07-08T00:35:35.040Z,19.30
2017-07-08T00:38:02.216Z,19.20
2017-07-08T00:40:28.617Z,19.20
2017-07-08T00:42:55.801Z,19.40
2017-07-08T00:45:28.013Z,19.30
2017-07-08T00:47:54.408Z,19.50
2017-07-08T00:50:20.834Z,19.50
2017-07-08T00:52:47.274Z,19.60
2017-07-08T00:55:13.664Z,19.50
2017-07-08T00:57:40.854Z,19.50
2017-07-08T01:00:07.279Z,19.50
2017-07-08T01:02:33.703Z,19.50
2017-07-08T01:05:00.130Z,19.60
2017-07-08T01:07:26.547Z,19.50
2017-07-08T01:09:53.715Z,19.50
2017-07-08T01:12:20.162Z,19.50
2017-07-08T01:14:46.559Z,19.40
2017-07-08T01:17:12.962Z,19.20
2017-07-08T01:19:39.381Z,19.10
2017-07-08T01:22:05.840Z,19.10
2017-07-08T01:24:32.257Z,19.10
2017-07-08T01:26:58.655Z,19.20
2017-07-08T01:29:25.058Z,19.20
2017-07-08T01:31:52.247Z,19.30
2017-07-08T01:34:18.647Z,19.30
2017-07-08T01:36:45.813Z,19.20
2017-07-08T01:39:12.975Z,19.20
2017-07-08T01:41:39.397Z,19.20
2017-07-08T01:44:05.829Z,19.30
2017-07-08T01:46:32.266Z,19.40
2017-07-08T01:48:58.680Z,19.40
2017-07-08T01:51:25.842Z,19.30
2017-07-08T01:53:52.462Z,19.30
2017-07-08T01:56:19.659Z,19.20
2017-07-08T01:58:46.041Z,19.20
2017-07-08T02:01:13.232Z,19.10
2017-07-08T02:03:39.644Z,19.10
2017-07-08T02:06:06.041Z,19.10
2017-07-08T02:08:32.457Z,19.20
2017-07-08T02:10:59.216Z,19.20
2017-07-08T02:13:25.647Z,19.20
2017-07-08T02:15:52.045Z,19.20
2017-07-08T02:18:18.477Z,19.10
2017-07-08T02:20:44.919Z,19.10
2017-07-08T02:23:11.288Z,19.10
2017-07-08T02:25:37.715Z,18.90
2017-07-08T02:28:04.147Z,18.90
2017-07-08T02:30:30.579Z,18.90
2017-07-08T02:32:56.994Z,18.80
2017-07-08T02:35:23.379Z,18.90
2017-07-08T02:37:49.796Z,18.80
2017-07-08T02:40:16.933Z,18.80
2017-07-08T02:42:43.325Z,18.70
2017-07-08T02:45:09.734Z,18.80
2017-07-08T02:47:36.206Z,18.70
2017-07-08T02:50:02.624Z,18.70
2017-07-08T02:52:29.057Z,18.70
2017-07-08T02:54:55.522Z,18.70
2017-07-08T02:57:21.937Z,18.70
2017-07-08T02:59:48.423Z,18.80
2017-07-08T03:02:14.869Z,18.60
2017-07-08T03:04:41.287Z,18.60
2017-07-08T03:07:07.695Z,18.60
2017-07-08T03:09:34.099Z,18.60
2017-07-08T03:12:00.509Z,18.60
2017-07-08T03:14:26.901Z,18.50
2017-07-08T03:16:53.308Z,18.50
2017-07-08T03:19:19.708Z,18.60
2017-07-08T03:21:46.117Z,18.50
2017-07-08T03:24:12.522Z,18.60
2017-07-08T03:26:38.949Z,18.60
2017-07-08T03:29:05.342Z,18.50
2017-07-08T03:31:31.788Z,18.50
2017-07-08T03:33:58.205Z,18.50
2017-07-08T03:36:24.595Z,18.60
2017-07-08T03:38:51.191Z,18.70
2017-07-08T03:41:17.601Z,18.60
2017-07-08T03:43:43.993Z,18.60
2017-07-08T03:46:10.403Z,18.70
2017-07-08T03:48:36.849Z,18.70
2017-07-08T03:51:03.270Z,18.80
2017-07-08T03:53:29.697Z,18.80
2017-07-08T03:55:56.127Z,18.90
2017-07-08T03:58:22.532Z,18.80
2017-07-08T04:00:48.961Z,18.60
2017-07-08T04:03:15.399Z,18.60
2017-07-08T04:05:41.799Z,18.70
2017-07-08T04:08:09.042Z,18.80
2017-07-08T04:10:36.279Z,18.90
2017-07-08T04:13:02.695Z,18.90
2017-07-08T04:15:29.077Z,18.90
2017-07-08T04:17:55.508Z,19.00
2017-07-08T04:20:22.656Z,19.30
2017-07-08T04:22:49.827Z,19.40
2017-07-08T04:25:16.264Z,19.40
2017-07-08T04:27:42.653Z,19.50
2017-07-08T04:30:09.044Z,19.60
2017-07-08T04:32:35.461Z,19.80
2017-07-08T04:35:01.908Z,20.00
2017-07-08T04:37:28.329Z,20.00
2017-07-08T04:39:54.734Z,20.20
2017-07-08T04:42:21.895Z,20.60
2017-07-08T04:44:48.304Z,20.60
2017-07-08T04:47:15.445Z,20.90
2017-07-08T04:49:41.927Z,20.90
2017-07-08T04:52:08.342Z,21.20
2017-07-08T04:54:34.790Z,21.20
2017-07-08T04:57:01.177Z,21.40
2017-07-08T04:59:28.018Z,21.50
2017-07-08T05:02:01.505Z,21.60
2017-07-08T05:04:27.911Z,21.70
2017-07-08T05:06:54.337Z,21.70
2017-07-08T05:09:20.791Z,21.90
2017-07-08T05:11:47.180Z,21.90
2017-07-08T05:14:14.339Z,22.10
2017-07-08T05:16:40.767Z,22.10
2017-07-08T05:19:07.210Z,22.20
2017-07-08T05:21:33.619Z,22.30
2017-07-08T05:24:00.757Z,22.60
2017-07-08T05:26:27.170Z,22.60
2017-07-08T05:28:53.589Z,22.70
2017-07-08T05:31:20.061Z,22.80
2017-07-08T05:33:47.210Z,23.10
2017-07-08T05:36:14.375Z,23.10
2017-07-08T05:38:40.797Z,23.10
2017-07-08T05:41:07.949Z,23.40
2017-07-08T05:43:35.138Z,23.60
2017-07-08T05:46:01.562Z,23.60
2017-07-08T05:48:27.940Z,23.80
2017-07-08T05:50:54.364Z,24.10
2017-07-08T05:53:20.777Z,24.40
2017-07-08T05:55:47.244Z,24.60
2017-07-08T05:58:13.647Z,24.80
2017-07-08T06:00:40.090Z,25.10
2017-07-08T06:03:06.509Z,25.40
2017-07-08T06:05:32.927Z,25.60
2017-07-08T06:07:59.346Z,25.80
2017-07-08T06:10:25.823Z,26.10
2017-07-08T06:12:52.229Z,26.40
2017-07-08T06:15:18.655Z,26.60
2017-07-08T06:17:45.046Z,26.90
2017-07-08T06:20:11.468Z,27.30
2017-07-08T06:22:37.877Z,27.50
2017-07-08T06:25:04.284Z,27.80
2017-07-08T06:27:30.698Z,28.00
2017-07-08T06:29:57.082Z,28.30
2017-07-08T06:32:23.487Z,28.50
2017-07-08T06:34:49.893Z,28.20
2017-07-08T06:37:17.031Z,28.20
2017-07-08T06:39:43.435Z,28.20
2017-07-08T06:42:09.867Z,28.20
2017-07-08T06:44:36.254Z,28.10
2017-07-08T06:47:02.691Z,28.20
2017-07-08T06:49:29.101Z,28.20
2017-07-08T06:51:56.260Z,28.30
2017-07-08T06:54:22.642Z,28.30
2017-07-08T06:56:49.061Z,28.30
2017-07-08T06:59:15.493Z,28.30
2017-07-08T07:01:41.893Z,28.30
2017-07-08T07:04:08.301Z,28.00
2017-07-08T07:06:34.704Z,27.60
2017-07-08T07:09:01.108Z,27.80
2017-07-08T07:11:27.541Z,27.90
2017-07-08T07:13:53.948Z,28.00
2017-07-08T07:16:34.688Z,27.90
2017-07-08T07:19:01.209Z,27.90
2017-07-08T07:21:27.619Z,27.80
2017-07-08T07:23:54.025Z,27.90
2017-07-08T07:26:20.424Z,27.90
2017-07-08T07:28:47.046Z,28.00
2017-07-08T07:31:13.457Z,27.90
2017-07-08T07:33:39.864Z,27.80
2017-07-08T07:36:07.027Z,27.90
2017-07-08T07:38:33.465Z,27.80
2017-07-08T07:40:59.867Z,27.90
2017-07-08T07:43:27.006Z,28.20
2017-07-08T07:45:53.406Z,28.20
2017-07-08T07:48:19.861Z,28.10
2017-07-08T07:50:46.281Z,28.10
2017-07-08T07:53:12.704Z,28.10
2017-07-08T07:55:39.142Z,28.10
2017-07-08T07:58:05.542Z,28.10
2017-07-08T08:00:31.908Z,28.20
2017-07-08T08:03:13.229Z,28.40
2017-07-08T08:05:40.376Z,28.30
2017-07-08T08:08:07.531Z,28.40
2017-07-08T08:10:33.919Z,28.30
2017-07-08T08:13:00.356Z,28.10
2017-07-08T08:15:26.734Z,28.10
2017-07-08T08:17:53.154Z,28.00
2017-07-08T08:20:20.294Z,28.20
2017-07-08T08:22:46.699Z,28.20
2017-07-08T08:25:13.084Z,28.20
2017-07-08T08:27:39.465Z,28.20
2017-07-08T08:30:05.903Z,28.30
2017-07-08T08:32:32.368Z,28.30
2017-07-08T08:34:58.789Z,28.30
2017-07-08T08:37:25.196Z,28.30
2017-07-08T08:39:51.632Z,28.20
2017-07-08T08:42:18.080Z,28.10
2017-07-08T08:44:44.473Z,28.00
2017-07-08T08:47:10.900Z,28.00
2017-07-08T08:49:37.333Z,28.10
2017-07-08T08:52:03.719Z,28.00
2017-07-08T08:54:30.162Z,28.20
2017-07-08T08:56:57.345Z,28.40
2017-07-08T08:59:23.777Z,28.40
2017-07-08T09:01:50.218Z,28.30
2017-07-08T09:04:16.649Z,28.10
2017-07-08T09:06:43.096Z,28.20
2017-07-08T09:09:09.494Z,28.30
2017-07-08T09:11:36.686Z,28.60
2017-07-08T09:14:03.194Z,28.50
2017-07-08T09:16:29.617Z,28.50
2017-07-08T09:18:56.778Z,28.70
2017-07-08T09:21:23.217Z,28.70
2017-07-08T09:23:49.611Z,29.00
2017-07-08T09:26:16.023Z,29.00
2017-07-08T09:28:42.401Z,29.30
2017-07-08T09:31:08.802Z,29.40
2017-07-08T09:33:35.217Z,29.60
2017-07-08T09:36:01.648Z,29.50
2017-07-08T09:38:28.089Z,29.50
2017-07-08T09:40:54.489Z,29.50
2017-07-08T09:43:20.935Z,29.60
2017-07-08T09:45:47.352Z,29.80
2017-07-08T09:48:13.777Z,29.90
2017-07-08T09:50:40.189Z,29.80
2017-07-08T09:53:07.323Z,29.70
2017-07-08T09:55:34.494Z,29.70
2017-07-08T09:58:00.912Z,29.70
2017-07-08T10:00:28.062Z,29.80
2017-07-08T10:02:55.205Z,29.90
2017-07-08T10:05:21.595Z,30.00
2017-07-08T10:07:48.013Z,30.10
2017-07-08T10:10:14.426Z,30.00
2017-07-08T10:12:55.752Z,29.90
2017-07-08T10:15:22.176Z,29.80
2017-07-08T10:17:48.588Z,29.70
2017-07-08T10:20:14.998Z,29.70
2017-07-08T10:22:41.433Z,29.70
2017-07-08T10:25:07.869Z,29.70
2017-07-08T10:27:35.018Z,30.00
2017-07-08T10:30:02.190Z,30.20
2017-07-08T10:32:28.620Z,30.20
2017-07-08T10:34:55.073Z,30.10
2017-07-08T10:37:21.472Z,30.30
2017-07-08T10:39:47.881Z,30.20
2017-07-08T10:42:14.767Z,30.30
2017-07-08T10:44:41.279Z,30.00
2017-07-08T10:47:07.703Z,30.00
2017-07-08T10:49:34.912Z,30.10
2017-07-08T10:52:01.359Z,30.10
2017-07-08T10:54:27.798Z,30.40
2017-07-08T10:56:54.253Z,30.30
2017-07-08T10:59:21.480Z,30.30
2017-07-08T11:01:47.907Z,30.30
2017-07-08T11:04:14.313Z,30.20
2017-07-08T11:06:40.763Z,30.00
2017-07-08T11:09:07.217Z,29.90
2017-07-08T11:11:33.638Z,29.70
2017-07-08T11:14:00.050Z,29.80
2017-07-08T11:16:26.450Z,30.00
2017-07-08T11:18:52.867Z,30.10
2017-07-08T11:21:19.383Z,30.00
2017-07-08T11:23:46.578Z,30.10
2017-07-08T11:26:13.048Z,30.10
2017-07-08T11:28:39.450Z,30.20
2017-07-08T11:31:05.848Z,30.30
2017-07-08T11:33:32.258Z,30.30
2017-07-08T11:36:05.802Z,30.40
2017-07-08T11:38:32.212Z,30.60
2017-07-08T11:40:58.636Z,30.80
2017-07-08T11:43:25.025Z,31.10
2017-07-08T11:45:51.483Z,30.90
2017-07-08T11:48:17.883Z,30.60
2017-07-08T11:50:44.295Z,30.40
2017-07-08T11:53:10.699Z,30.40
2017-07-08T11:55:37.120Z,30.30
2017-07-08T11:58:03.588Z,30.20
2017-07-08T12:00:30.736Z,29.90
2017-07-08T12:02:57.891Z,30.00
2017-07-08T12:05:25.023Z,30.20
2017-07-08T12:07:51.438Z,30.20
2017-07-08T12:10:17.840Z,30.60
2017-07-08T12:12:44.230Z,30.90
2017-07-08T12:15:10.647Z,30.80
2017-07-08T12:17:37.051Z,30.80
2017-07-08T12:20:03.469Z,30.50
2017-07-08T12:22:29.899Z,30.50
2017-07-08T12:24:57.229Z,30.40
2017-07-08T12:27:24.379Z,30.20
2017-07-08T12:29:51.541Z,30.20
2017-07-08T12:32:17.944Z,30.20
2017-07-08T12:34:44.372Z,30.60
2017-07-08T12:37:10.743Z,31.00
2017-07-08T12:39:37.171Z,31.30
2017-07-08T12:42:03.619Z,31.30
2017-07-08T12:44:30.047Z,31.30
2017-07-08T12:46:56.469Z,31.20
2017-07-08T12:49:22.974Z,31.10
2017-07-08T12:51:49.372Z,31.20
2017-07-08T12:54:15.780Z,30.90
2017-07-08T12:56:42.164Z,30.60
2017-07-08T12:59:08.583Z,30.40
2017-07-08T13:01:34.992Z,30.60
2017-07-08T13:04:01.385Z,30.80
2017-07-08T13:06:27.773Z,31.20
2017-07-08T13:08:54.140Z,31.20
2017-07-08T13:11:20.517Z,31.10
2017-07-08T13:13:46.912Z,30.60
2017-07-08T13:16:13.321Z,30.50
2017-07-08T13:18:39.739Z,30.70
2017-07-08T13:21:06.157Z,30.70
2017-07-08T13:23:32.581Z,30.60
2017-07-08T13:25:59.042Z,30.60
2017-07-08T13:28:25.475Z,30.50
2017-07-08T13:30:51.880Z,30.50
2017-07-08T13:33:18.301Z,30.50
2017-07-08T13:35:44.719Z,30.50
2017-07-08T13:38:11.182Z,30.40
2017-07-08T13:40:37.565Z,30.10
2017-07-08T13:43:03.972Z,30.10
2017-07-08T13:45:30.421Z,30.00
2017-07-08T13:47:56.788Z,30.10
2017-07-08T13:50:23.246Z,30.20
2017-07-08T13:52:50.035Z,30.30
2017-07-08T13:55:16.489Z,30.30
2017-07-08T13:57:43.342Z,30.30
2017-07-08T14:00:09.805Z,30.00
2017-07-08T14:02:36.204Z,29.80
2017-07-08T14:05:03.362Z,30.00
2017-07-08T14:07:29.782Z,30.00
2017-07-08T14:09:56.914Z,30.20
2017-07-08T14:12:30.955Z,30.20
2017-07-08T14:15:03.503Z,30.10
2017-07-08T14:17:29.917Z,29.90
2017-07-08T14:19:56.302Z,29.90
2017-07-08T14:22:22.691Z,29.90
2017-07-08T14:24:49.123Z,29.90
2017-07-08T14:27:15.517Z,30.00
2017-07-08T14:29:41.911Z,30.10
2017-07-08T14:32:09.093Z,30.10
2017-07-08T14:34:35.488Z,30.00
2017-07-08T14:37:01.902Z,30.30
2017-07-08T14:39:28.291Z,30.50
2017-07-08T14:41:54.725Z,30.60
2017-07-08T14:44:21.119Z,30.60
2017-07-08T14:46:47.512Z,30.50
2017-07-08T14:49:13.921Z,30.60
2017-07-08T14:51:40.372Z,30.70
2017-07-08T14:54:06.782Z,30.70
2017-07-08T14:56:33.152Z,30.70
2017-07-08T14:58:59.566Z,30.90
2017-07-08T15:01:26.001Z,30.90
2017-07-08T15:03:52.385Z,31.20
2017-07-08T15:06:19.533Z,31.10
2017-07-08T15:08:45.941Z,31.10
2017-07-08T15:11:12.341Z,31.00
2017-07-08T15:13:38.745Z,31.00
2017-07-08T15:16:05.127Z,31.10
2017-07-08T15:18:31.533Z,31.10
2017-07-08T15:20:57.963Z,31.00
2017-07-08T15:23:24.411Z,31.30
2017-07-08T15:25:51.196Z,31.10
2017-07-08T15:28:17.617Z,31.10
2017-07-08T15:30:43.994Z,30.90
2017-07-08T15:33:10.389Z,30.80
2017-07-08T15:35:36.823Z,30.70
2017-07-08T15:38:03.229Z,30.60
2017-07-08T15:40:29.632Z,30.60
2017-07-08T15:42:56.027Z,30.40
2017-07-08T15:45:22.442Z,30.50
2017-07-08T15:47:48.859Z,30.40
2017-07-08T15:50:30.181Z,30.30
2017-07-08T15:52:56.648Z,30.10
2017-07-08T15:55:23.066Z,29.90
2017-07-08T15:57:49.486Z,29.70
2017-07-08T16:00:15.884Z,29.70
2017-07-08T16:02:42.283Z,29.70
2017-07-08T16:05:08.710Z,29.60
2017-07-08T16:07:35.107Z,29.30
2017-07-08T16:10:01.519Z,29.00
2017-07-08T16:12:27.914Z,28.70
2017-07-08T16:14:54.312Z,28.50
2017-07-08T16:17:20.718Z,28.30
2017-07-08T16:19:47.164Z,28.20
2017-07-08T16:22:13.568Z,27.90
2017-07-08T16:24:39.966Z,27.90
2017-07-08T16:27:06.375Z,27.90
2017-07-08T16:29:33.556Z,28.20
2017-07-08T16:31:59.966Z,28.20
2017-07-08T16:34:27.108Z,28.60
2017-07-08T16:36:53.515Z,28.60
2017-07-08T16:39:19.910Z,28.70
2017-07-08T16:41:46.316Z,28.40
2017-07-08T16:44:13.494Z,27.70
2017-07-08T16:46:39.913Z,27.70
2017-07-08T16:49:06.322Z,27.60
2017-07-08T16:51:32.727Z,27.40
2017-07-08T16:53:59.118Z,27.50
2017-07-08T16:56:25.503Z,27.30
2017-07-08T16:58:51.900Z,27.30
2017-07-08T17:01:18.422Z,27.20
2017-07-08T17:03:44.827Z,27.30
2017-07-08T17:06:12.010Z,27.40
2017-07-08T17:08:38.398Z,27.40
2017-07-08T17:11:04.796Z,27.30
2017-07-08T17:13:31.214Z,27.20
2017-07-08T17:15:57.634Z,27.20
2017-07-08T17:18:24.044Z,27.10
2017-07-08T17:20:51.222Z,27.00
2017-07-08T17:23:18.368Z,26.80
2017-07-08T17:25:44.775Z,26.80
2017-07-08T17:28:11.957Z,26.90
2017-07-08T17:30:38.361Z,26.90
2017-07-08T17:33:04.772Z,27.00
2017-07-08T17:35:31.204Z,27.10
2017-07-08T17:37:57.635Z,27.20
2017-07-08T17:40:25.693Z,27.30
2017-07-08T17:42:52.454Z,27.20
2017-07-08T17:45:18.872Z,27.40
2017-07-08T17:47:45.271Z,27.40
2017-07-08T17:50:11.714Z,27.20
2017-07-08T17:52:38.167Z,27.10
2017-07-08T17:55:04.602Z,27.20
2017-07-08T17:57:31.028Z,27.20
2017-07-08T17:59:57.449Z,27.10
2017-07-08T18:02:23.943Z,27.10
2017-07-08T18:04:51.107Z,27.20
2017-07-08T18:07:17.690Z,27.20
2017-07-08T18:09:44.090Z,27.20
2017-07-08T18:12:10.482Z,27.10
2017-07-08T18:14:37.635Z,26.90
2017-07-08T18:17:04.028Z,26.80
2017-07-08T18:19:30.415Z,26.80
2017-07-08T18:21:57.584Z,26.90
2017-07-08T18:24:24.000Z,26.90
2017-07-08T18:26:51.134Z,26.70
2017-07-08T18:29:17.534Z,26.70
2017-07-08T18:31:43.947Z,26.90
2017-07-08T18:34:10.335Z,26.90
2017-07-08T18:36:37.482Z,26.70
2017-07-08T18:39:03.948Z,26.70
2017-07-08T18:41:30.398Z,26.60
2017-07-08T18:43:56.801Z,26.60
2017-07-08T18:46:23.224Z,26.60
2017-07-08T18:48:50.394Z,26.50
2017-07-08T18:51:16.797Z,26.50
2017-07-08T18:53:43.975Z,26.30
2017-07-08T18:56:10.393Z,26.30
2017-07-08T18:58:37.570Z,26.20
2017-07-08T19:01:03.977Z,26.20
2017-07-08T19:03:31.112Z,26.00
2017-07-08T19:05:57.504Z,26.00
2017-07-08T19:08:24.171Z,25.90
2017-07-08T19:10:50.599Z,25.90
2017-07-08T19:13:17.014Z,25.80
2017-07-08T19:15:43.420Z,25.90
2017-07-08T19:18:09.810Z,25.80
2017-07-08T19:20:36.944Z,25.50
2017-07-08T19:23:03.368Z,25.50
2017-07-08T19:25:29.766Z,25.40
2017-07-08T19:27:56.180Z,25.30
2017-07-08T19:30:22.578Z,25.20
2017-07-08T19:32:48.981Z,25.20
2017-07-08T19:35:15.408Z,25.00
2017-07-08T19:37:41.837Z,25.10
2017-07-08T19:40:08.262Z,25.00
2017-07-08T19:42:34.660Z,24.80
2017-07-08T19:45:01.860Z,24.70
2017-07-08T19:47:28.325Z,24.70
2017-07-08T19:49:54.772Z,24.70
2017-07-08T19:52:21.175Z,24.70
2017-07-08T19:54:47.625Z,24.70
2017-07-08T19:57:14.141Z,24.70
2017-07-08T19:59:40.554Z,24.50
2017-07-08T20:02:06.957Z,24.40
2017-07-08T20:04:34.154Z,24.30
2017-07-08T20:07:00.665Z,24.30
2017-07-08T20:09:27.349Z,24.10
2017-07-08T20:11:53.764Z,24.00
2017-07-08T20:14:20.268Z,23.90
2017-07-08T20:16:46.746Z,23.80
2017-07-08T20:19:13.165Z,23.70
2017-07-08T20:21:39.671Z,23.60
2017-07-08T20:24:06.140Z,23.60
2017-07-08T20:26:32.578Z,23.50
2017-07-08T20:28:58.961Z,23.50
2017-07-08T20:31:26.179Z,23.50
2017-07-08T20:33:53.389Z,23.30
2017-07-08T20:36:19.847Z,23.30
2017-07-08T20:38:47.065Z,23.40
2017-07-08T20:41:13.469Z,23.30
2017-07-08T20:43:40.698Z,23.20
2017-07-08T20:46:07.912Z,23.10
2017-07-08T20:48:34.335Z,23.10
2017-07-08T20:51:00.764Z,23.20
2017-07-08T20:53:27.270Z,23.20
2017-07-08T20:55:54.498Z,23.30
2017-07-08T20:58:20.985Z,23.20
2017-07-08T21:00:47.488Z,23.20
2017-07-08T21:03:14.683Z,23.10
2017-07-08T21:05:41.195Z,23.00
2017-07-08T21:08:07.714Z,23.10
2017-07-08T21:10:34.159Z,23.20
2017-07-08T21:13:00.663Z,23.10
2017-07-08T21:15:27.849Z,22.70
2017-07-08T21:17:54.277Z,22.70
2017-07-08T21:20:20.744Z,22.60
2017-07-08T21:22:47.164Z,22.70
2017-07-08T21:25:13.566Z,22.70
2017-07-08T21:27:40.746Z,22.20
2017-07-08T21:30:07.142Z,22.10
2017-07-08T21:32:33.544Z,22.10
2017-07-08T21:34:59.940Z,22.10
2017-07-08T21:37:26.390Z,22.00
2017-07-08T21:39:52.948Z,22.00
2017-07-08T21:42:19.353Z,22.10
2017-07-08T21:44:45.756Z,22.10
2017-07-08T21:47:12.903Z,22.20
2017-07-08T21:49:40.052Z,22.20
2017-07-08T21:52:07.236Z,22.10
2017-07-08T21:54:33.640Z,22.10
2017-07-08T21:57:00.787Z,22.00
2017-07-08T21:59:27.210Z,22.00
2017-07-08T22:01:54.364Z,21.80
2017-07-08T22:04:21.513Z,21.80
2017-07-08T22:06:48.630Z,21.80
2017-07-08T22:09:15.383Z,21.80
2017-07-08T22:11:41.792Z,21.70
2017-07-08T22:14:08.181Z,21.50
2017-07-08T22:16:34.614Z,21.40
2017-07-08T22:19:01.032Z,21.40
2017-07-08T22:21:28.177Z,21.20
2017-07-08T22:23:55.335Z,21.10
2017-07-08T22:26:22.444Z,21.10
2017-07-08T22:28:48.860Z,21.10
2017-07-08T22:31:15.275Z,21.00
2017-07-08T22:33:41.691Z,20.90
2017-07-08T22:36:08.848Z,20.80
2017-07-08T22:38:35.256Z,20.80
2017-07-08T22:41:02.442Z,20.90
2017-07-08T22:43:28.826Z,20.80
2017-07-08T22:45:55.237Z,20.80
2017-07-08T22:48:21.642Z,20.80
2017-07-08T22:50:48.408Z,20.80
2017-07-08T22:53:14.948Z,20.70
2017-07-08T22:55:41.346Z,20.70
2017-07-08T22:58:07.788Z,20.80
2017-07-08T23:00:34.212Z,20.80
2017-07-08T23:03:00.599Z,20.70
2017-07-08T23:05:27.011Z,20.70
2017-07-08T23:07:53.410Z,20.80
2017-07-08T23:10:19.863Z,20.80
2017-07-08T23:12:46.289Z,20.70
2017-07-08T23:15:12.708Z,20.50
2017-07-08T23:17:39.092Z,20.50
2017-07-08T23:20:05.484Z,20.40
2017-07-08T23:22:31.912Z,20.40
2017-07-08T23:24:58.307Z,20.40
2017-07-08T23:27:24.688Z,20.40
2017-07-08T23:29:51.941Z,20.40
2017-07-08T23:32:18.356Z,20.40
2017-07-08T23:34:44.783Z,20.50
2017-07-08T23:37:11.188Z,20.40
2017-07-08T23:39:37.610Z,20.40
2017-07-08T23:42:04.025Z,20.20
2017-07-08T23:44:30.415Z,20.20
2017-07-08T23:46:56.833Z,20.20
2017-07-08T23:49:23.257Z,20.00
2017-07-08T23:51:50.398Z,19.80
2017-07-08T23:54:17.555Z,19.80
2017-07-08T23:56:44.760Z,19.90
2017-07-08T23:59:11.229Z,19.90
